Time;durP1;ratioP1;P1;durP2;ratioP2;P2;SDS_P1;SDS_P2;PMS_P1;PMS_P2;Temp;Humidity;BMP_temperature;BMP_pressure;BME280_temperature;BME280_humidity;BME280_pressure;Samples;Min_cycle;Max_cycle;Signal;HPM_P1;HPM_P2
2023/12/25 00:01:16;;;;;;;;;;;;;;;9.12;100.00;99212.53;4196008;28;20023;-68
2023/12/25 00:03:18;;;;;;;;;;;;;;;9.12;100.00;99254.78;4196610;28;20035;-68
2023/12/25 00:05:20;;;;;;;;;;;;;;;9.11;100.00;99237.78;4196788;28;20365;-68
2023/12/25 00:07:22;;;;;;;;;;;;;;;9.11;100.00;99247.75;4195241;28;20019;-68
2023/12/25 00:09:25;;;;;;;;;;;;;;;9.10;100.00;99265.75;4193905;28;20015;-68
2023/12/25 00:11:27;;;;;;;;;;;;;;;9.10;100.00;99264.94;4194167;28;20024;-68
2023/12/25 00:13:29;;;;;;;;;;;;;;;9.09;100.00;99282.13;4195085;28;20023;-68
2023/12/25 00:15:32;;;;;;;;;;;;;;;9.09;100.00;99255.19;4197128;28;19924;-68
2023/12/25 00:17:34;;;;;;;;;;;;;;;9.08;100.00;99259.75;4196126;28;20010;-68
2023/12/25 00:19:36;;;;;;;;;;;;;;;9.08;100.00;99254.38;4195076;28;20391;-69
2023/12/25 00:21:37;;;;;;;;;;;;;;;9.07;100.00;99235.72;4195047;28;20024;-68
2023/12/25 00:23:39;;;;;;;;;;;;;;;9.08;100.00;99237.38;4195926;28;20381;-68
2023/12/25 00:25:42;;;;;;;;;;;;;;;9.08;100.00;99246.28;4196921;28;20019;-68
2023/12/25 00:27:44;;;;;;;;;;;;;;;9.07;100.00;99246.50;4196081;28;20055;-68
2023/12/25 00:29:45;;;;;;;;;;;;;;;9.06;100.00;99256.44;4196206;28;20016;-68
2023/12/25 00:31:48;;;;;;;;;;;;;;;9.06;100.00;99255.59;4196383;28;19981;-68
2023/12/25 00:33:50;;;;;;;;;;;;;;;9.06;100.00;99261.81;4195930;28;20026;-68
2023/12/25 00:35:52;;;;;;;;;;;;;;;9.06;100.00;99250.19;4195296;28;20343;-68
2023/12/25 00:37:54;;;;;;;;;;;;;;;9.06;100.00;99259.13;4195992;28;20032;-68
2023/12/25 00:39:56;;;;;;;;;;;;;;;9.06;100.00;99260.97;4195900;28;20828;-69
2023/12/25 00:41:59;;;;;;;;;;;;;;;9.06;100.00;99259.13;4194088;28;20020;-68
2023/12/25 00:44:02;;;;;;;;;;;;;;;9.04;100.00;99253.09;4194520;28;20015;-68
2023/12/25 00:46:04;;;;;;;;;;;;;;;9.04;100.00;99263.88;4195475;28;20022;-68
2023/12/25 00:48:07;;;;;;;;;;;;;;;9.05;100.00;99272.81;4196022;28;20022;-68
2023/12/25 00:50:09;;;;;;;;;;;;;;;9.04;100.00;99274.66;4196091;28;20720;-69
2023/12/25 00:52:14;;;;;;;;;;;;;;;9.04;100.00;99276.53;4211390;28;20059;-68
2023/12/25 00:54:15;;;;;;;;;;;;;;;9.04;100.00;99271.13;4196183;28;20006;-68
2023/12/25 00:56:17;;;;;;;;;;;;;;;9.05;100.00;99286.28;4194769;28;19925;-68
2023/12/25 00:58:20;;;;;;;;;;;;;;;9.04;100.00;99281.91;4194687;28;20011;-67
2023/12/25 01:00:22;;;;;;;;;;;;;;;9.04;100.00;99276.53;4194623;28;20015;-68
2023/12/25 01:02:24;;;;;;;;;;;;;;;9.04;100.00;99271.13;4194932;28;20020;-68
2023/12/25 01:04:26;;;;;;;;;;;;;;;9.04;100.00;99276.53;4211588;28;20404;-68
2023/12/25 01:06:28;;;;;;;;;;;;;;;9.03;100.00;99281.09;4194071;28;20474;-69
2023/12/25 01:08:29;;;;;;;;;;;;;;;9.04;100.00;99276.53;4195813;28;20022;-67
2023/12/25 01:10:31;;;;;;;;;;;;;;;9.04;100.00;99287.28;4195318;28;19931;-68
2023/12/25 01:12:33;;;;;;;;;;;;;;;9.04;100.00;99287.28;4193538;28;20364;-68
2023/12/25 01:14:37;;;;;;;;;;;;;;;9.04;100.00;99284.59;4195083;28;20015;-68
2023/12/25 01:16:39;;;;;;;;;;;;;;;9.05;100.00;99286.28;4194643;28;20414;-69
2023/12/25 01:18:41;;;;;;;;;;;;;;;9.04;100.00;99282.72;4195183;28;20446;-68
2023/12/25 01:20:43;;;;;;;;;;;;;;;9.04;100.00;99280.03;4195374;28;20024;-68
2023/12/25 01:22:46;;;;;;;;;;;;;;;9.05;100.00;99297.03;4186503;28;20024;-68
2023/12/25 01:24:47;;;;;;;;;;;;;;;9.04;100.00;99304.28;4194610;28;20023;-68
2023/12/25 01:26:50;;;;;;;;;;;;;;;9.04;100.00;99290.81;4193264;28;20023;-68
2023/12/25 01:28:51;;;;;;;;;;;;;;;9.05;100.00;99307.81;4193821;28;20011;-68
2023/12/25 01:30:54;;;;;;;;;;;;;;;9.05;100.00;99299.72;4211263;28;20043;-68
2023/12/25 01:32:56;;;;;;;;;;;;;;;9.04;100.00;99304.28;4195584;28;20015;-68
2023/12/25 01:34:57;;;;;;;;;;;;;;;9.04;100.00;99304.28;4194460;28;20437;-69
2023/12/25 01:37:00;;;;;;;;;;;;;;;9.05;100.00;99297.88;4195492;28;19928;-68
2023/12/25 01:39:02;;;;;;;;;;;;;;;9.06;100.00;99298.69;4194133;28;20004;-68
2023/12/25 01:41:04;;;;;;;;;;;;;;;9.07;100.00;99297.66;4193728;28;20024;-68
2023/12/25 01:43:05;;;;;;;;;;;;;;;9.07;100.00;99292.28;4194089;28;20453;-68
2023/12/25 01:45:08;;;;;;;;;;;;;;;9.06;100.00;99280.69;4194207;28;19925;-68
2023/12/25 01:47:10;;;;;;;;;;;;;;;9.07;100.00;99281.50;4192799;28;20383;-68
2023/12/25 01:49:12;;;;;;;;;;;;;;;9.06;100.00;99291.44;4195358;28;20493;-68
2023/12/25 01:51:15;;;;;;;;;;;;;;;9.07;100.00;99284.19;4195068;28;20015;-68
2023/12/25 01:53:17;;;;;;;;;;;;;;;9.07;100.00;99276.13;4194999;28;20014;-68
2023/12/25 01:55:19;;;;;;;;;;;;;;;9.08;100.00;99285.88;4194652;28;20039;-69
2023/12/25 01:57:20;;;;;;;;;;;;;;;9.07;100.00;99279.63;4195389;28;20019;-68
2023/12/25 01:59:22;;;;;;;;;;;;;;;9.07;100.00;99281.50;4192756;28;19925;-68
2023/12/25 02:01:24;;;;;;;;;;;;;;;9.07;100.00;99289.59;4194051;28;20027;-68
2023/12/25 02:03:27;;;;;;;;;;;;;;;9.07;100.00;99285.00;4194144;28;20015;-68
2023/12/25 02:05:29;;;;;;;;;;;;;;;9.06;100.00;99286.06;4193297;28;20036;-68
2023/12/25 02:07:31;;;;;;;;;;;;;;;9.06;100.00;99299.53;4194594;28;20022;-68
2023/12/25 02:09:33;;;;;;;;;;;;;;;9.07;100.00;99298.47;4194010;28;20023;-68
2023/12/25 02:11:38;;;;;;;;;;;;;;;9.07;100.00;99314.63;4192261;28;20016;-68
2023/12/25 02:13:39;;;;;;;;;;;;;;;9.08;100.00;99299.31;4192982;28;20019;-68
2023/12/25 02:15:41;;;;;;;;;;;;;;;9.08;100.00;99307.41;4194595;28;20047;-68
2023/12/25 02:17:43;;;;;;;;;;;;;;;9.08;100.00;99302.03;4195046;28;19928;-68
2023/12/25 02:19:46;;;;;;;;;;;;;;;9.07;100.00;99298.47;4193504;28;20027;-68
2023/12/25 02:21:48;;;;;;;;;;;;;;;9.09;100.00;99303.66;4195098;28;20007;-67
2023/12/25 02:23:51;;;;;;;;;;;;;;;9.09;100.00;99306.34;4195133;28;20011;-68
2023/12/25 02:25:54;;;;;;;;;;;;;;;9.09;100.00;99309.91;4193276;28;20361;-68
2023/12/25 02:27:56;;;;;;;;;;;;;;;9.11;100.00;99298.94;4186334;28;20015;-68
2023/12/25 02:29:57;;;;;;;;;;;;;;;9.09;100.00;99304.50;4194047;28;20482;-69
2023/12/25 02:31:59;;;;;;;;;;;;;;;9.11;100.00;99298.94;4194691;28;19986;-68
2023/12/25 02:34:01;;;;;;;;;;;;;;;9.11;100.00;99305.13;4195610;28;20019;-68
2023/12/25 02:36:04;;;;;;;;;;;;;;;9.12;100.00;99311.34;4194912;28;20388;-69
2023/12/25 02:38:05;;;;;;;;;;;;;;;9.11;100.00;99321.28;4195467;28;19932;-68
2023/12/25 02:40:09;;;;;;;;;;;;;;;9.12;100.00;99325.66;4193732;28;20015;-68
2023/12/25 02:42:13;;;;;;;;;;;;;;;9.14;100.00;99320.06;4192468;28;20023;-68
2023/12/25 02:44:16;;;;;;;;;;;;;;;9.15;100.00;99302.84;4194605;28;20015;-68
2023/12/25 02:46:18;;;;;;;;;;;;;;;9.16;100.00;99334.97;4194082;28;20027;-68
2023/12/25 02:48:20;;;;;;;;;;;;;;;9.17;100.00;99308.91;4194024;28;20011;-68
2023/12/25 02:50:22;;;;;;;;;;;;;;;9.16;100.00;99304.53;4194042;28;20015;-68
2023/12/25 02:52:24;;;;;;;;;;;;;;;9.17;100.00;99304.31;4193529;28;20458;-68
2023/12/25 02:54:26;;;;;;;;;;;;;;;9.16;100.00;99313.44;4192448;28;20019;-68
2023/12/25 02:56:27;;;;;;;;;;;;;;;9.18;100.00;99319.47;4194163;28;20027;-69
2023/12/25 02:58:30;;;;;;;;;;;;;;;9.17;100.00;99328.56;4193193;28;20437;-69
2023/12/25 03:00:32;;;;;;;;;;;;;;;9.19;100.00;99312.19;4193192;28;20376;-68
2023/12/25 03:02:35;;;;;;;;;;;;;;;9.19;100.00;99321.09;4193068;28;20394;-68
2023/12/25 03:04:37;;;;;;;;;;;;;;;9.19;100.00;99318.41;4193919;28;20043;-68
2023/12/25 03:06:38;;;;;;;;;;;;;;;9.21;100.00;99315.50;4195025;28;20047;-68
2023/12/25 03:08:40;;;;;;;;;;;;;;;9.21;100.00;99318.22;4194576;28;19932;-68
2023/12/25 03:10:42;;;;;;;;;;;;;;;9.22;100.00;99324.44;4193528;28;20008;-69
2023/12/25 03:12:44;;;;;;;;;;;;;;;9.23;100.00;99309.94;4193630;28;20438;-68
2023/12/25 03:14:48;;;;;;;;;;;;;;;9.24;100.00;99316.97;4194748;28;20015;-68
2023/12/25 03:16:50;;;;;;;;;;;;;;;9.24;100.00;99320.50;4193636;28;20023;-68
2023/12/25 03:18:52;;;;;;;;;;;;;;;9.25;100.00;99315.94;4193138;28;20036;-69
2023/12/25 03:20:55;;;;;;;;;;;;;;;9.24;100.00;99309.72;4194698;28;20011;-68
2023/12/25 03:22:57;;;;;;;;;;;;;;;9.25;100.00;99332.09;4194913;28;20032;-69
2023/12/25 03:24:59;;;;;;;;;;;;;;;9.26;100.00;99331.06;4193273;28;20019;-69
2023/12/25 03:27:01;;;;;;;;;;;;;;;9.25;100.00;99342.88;4193629;28;20020;-68
2023/12/25 03:29:03;;;;;;;;;;;;;;;9.25;100.00;99335.63;4194865;28;20438;-68
2023/12/25 03:31:07;;;;;;;;;;;;;;;9.27;100.00;99340.81;4192604;28;20024;-69
2023/12/25 03:33:09;;;;;;;;;;;;;;;9.27;100.00;99360.50;4193626;28;20012;-68
2023/12/25 03:35:11;;;;;;;;;;;;;;;9.26;100.00;99356.13;4192369;28;19963;-68
2023/12/25 03:37:13;;;;;;;;;;;;;;;9.28;100.00;99334.38;4193711;28;20449;-68
2023/12/25 03:39:15;;;;;;;;;;;;;;;9.29;100.00;99339.56;4192082;28;19931;-67
2023/12/25 03:41:17;;;;;;;;;;;;;;;9.29;100.00;99334.19;4193156;28;20015;-68
2023/12/25 03:43:20;;;;;;;;;;;;;;;9.29;100.00;99344.97;4194748;28;20031;-68
2023/12/25 03:45:21;;;;;;;;;;;;;;;9.31;100.00;99358.22;4195469;28;20019;-68
2023/12/25 03:47:24;;;;;;;;;;;;;;;9.31;100.00;99323.19;4196304;28;20381;-67
2023/12/25 03:49:26;;;;;;;;;;;;;;;9.30;100.00;99337.72;4196294;28;20441;-68
2023/12/25 03:51:28;;;;;;;;;;;;;;;9.29;100.00;99336.88;4196422;28;20055;-68
2023/12/25 03:53:31;;;;;;;;;;;;;;;9.29;100.00;99325.28;4196899;28;20031;-68
2023/12/25 03:55:33;;;;;;;;;;;;;;;9.29;100.00;99331.47;4196815;28;20016;-68
2023/12/25 03:57:35;;;;;;;;;;;;;;;9.29;100.00;99336.88;4197760;28;20294;-68
2023/12/25 03:59:36;;;;;;;;;;;;;;;9.28;100.00;99327.16;4196350;28;20023;-68
2023/12/25 04:01:39;;;;;;;;;;;;;;;9.29;100.00;99330.66;4195623;28;20327;-68
2023/12/25 04:03:42;;;;;;;;;;;;;;;9.29;100.00;99333.34;4196399;28;20107;-68
2023/12/25 04:05:43;;;;;;;;;;;;;;;9.28;100.00;99334.38;4194197;28;20442;-68
2023/12/25 04:07:45;;;;;;;;;;;;;;;9.27;100.00;99330.03;4197012;28;19925;-69
2023/12/25 04:09:47;;;;;;;;;;;;;;;9.27;100.00;99330.03;4196392;28;20023;-68
2023/12/25 04:11:49;;;;;;;;;;;;;;;9.27;100.00;99324.66;4194208;28;20027;-68
2023/12/25 04:13:53;;;;;;;;;;;;;;;9.27;100.00;99324.66;4195858;28;20023;-69
2023/12/25 04:15:55;;;;;;;;;;;;;;;9.27;100.00;99343.53;4195369;28;19996;-68
2023/12/25 04:17:57;;;;;;;;;;;;;;;9.27;100.00;99340.81;4195266;28;20028;-68
2023/12/25 04:20:00;;;;;;;;;;;;;;;9.27;100.00;99313.88;4195979;28;19929;-68
2023/12/25 04:22:02;;;;;;;;;;;;;;;9.27;100.00;99321.97;4195512;28;20383;-67
2023/12/25 04:24:04;;;;;;;;;;;;;;;9.27;100.00;99306.63;4196399;28;20015;-67
2023/12/25 04:26:06;;;;;;;;;;;;;;;9.27;100.00;99320.09;4196573;28;20023;-67
2023/12/25 04:28:08;;;;;;;;;;;;;;;9.27;100.00;99319.28;4195804;28;20023;-67
2023/12/25 04:30:11;;;;;;;;;;;;;;;9.27;100.00;99317.41;4212258;28;20445;-67
2023/12/25 04:32:12;;;;;;;;;;;;;;;9.27;100.00;99322.78;4196209;28;20015;-68
2023/12/25 04:34:14;;;;;;;;;;;;;;;9.28;100.00;99318.22;4195954;28;20032;-67
2023/12/25 04:36:18;;;;;;;;;;;;;;;9.27;100.00;99317.41;4194721;28;20473;-67
2023/12/25 04:38:19;;;;;;;;;;;;;;;9.28;100.00;99310.97;4196327;28;20015;-67
2023/12/25 04:40:21;;;;;;;;;;;;;;;9.28;100.00;99326.31;4195419;28;20355;-67
2023/12/25 04:42:22;;;;;;;;;;;;;;;9.28;100.00;99324.47;4194884;28;20023;-67
2023/12/25 04:44:24;;;;;;;;;;;;;;;9.28;100.00;99321.75;4193557;28;20024;-67
2023/12/25 04:46:25;;;;;;;;;;;;;;;9.28;100.00;99327.16;4194820;28;20023;-68
2023/12/25 04:48:27;;;;;;;;;;;;;;;9.29;100.00;99336.88;4195373;28;20019;-67
2023/12/25 04:50:30;;;;;;;;;;;;;;;9.29;100.00;99320.72;4195156;28;20025;-67
2023/12/25 04:52:34;;;;;;;;;;;;;;;9.30;100.00;99322.38;4195238;28;20019;-68
2023/12/25 04:54:36;;;;;;;;;;;;;;;9.30;100.00;99308.91;4182055;28;20040;-67
2023/12/25 04:56:38;;;;;;;;;;;;;;;9.31;100.00;99297.09;4195139;28;20051;-67
2023/12/25 04:58:41;;;;;;;;;;;;;;;9.30;100.00;99308.91;4202557;28;20015;-68
2023/12/25 05:00:43;;;;;;;;;;;;;;;9.31;100.00;99302.50;4195958;28;19968;-67
2023/12/25 05:02:45;;;;;;;;;;;;;;;9.32;100.00;99303.31;4194685;28;20011;-67
2023/12/25 05:04:47;;;;;;;;;;;;;;;9.32;100.00;99314.09;4187568;28;20015;-67
2023/12/25 05:06:49;;;;;;;;;;;;;;;9.32;100.00;99316.78;4195629;28;20024;-67
2023/12/25 05:08:55;;;;;;;;;;;;;;;9.33;100.00;99313.88;4194843;28;20452;-67
2023/12/25 05:10:58;;;;;;;;;;;;;;;9.32;100.00;99311.41;4194736;28;20019;-68
2023/12/25 05:13:00;;;;;;;;;;;;;;;9.33;100.00;99323.84;4195170;28;20028;-68
2023/12/25 05:15:01;;;;;;;;;;;;;;;9.33;100.00;99313.06;4195469;28;20378;-67
2023/12/25 05:17:03;;;;;;;;;;;;;;;9.34;100.00;99314.72;4195235;28;20385;-68
2023/12/25 05:19:05;;;;;;;;;;;;;;;9.33;100.00;99327.38;4196108;28;20015;-68
2023/12/25 05:21:07;;;;;;;;;;;;;;;9.33;100.00;99323.84;4195626;28;20467;-68
2023/12/25 05:23:08;;;;;;;;;;;;;;;9.33;100.00;99319.28;4195614;28;20482;-68
2023/12/25 05:25:12;;;;;;;;;;;;;;;9.35;100.00;99316.38;4195856;28;19928;-68
2023/12/25 05:27:13;;;;;;;;;;;;;;;9.35;100.00;99330.69;4195569;28;20023;-68
2023/12/25 05:29:15;;;;;;;;;;;;;;;9.35;100.00;99327.16;4195293;28;20380;-68
2023/12/25 05:31:17;;;;;;;;;;;;;;;9.36;100.00;99321.56;4194040;28;20342;-68
2023/12/25 05:33:19;;;;;;;;;;;;;;;9.37;100.00;99327.78;4194891;28;20011;-69
2023/12/25 05:35:21;;;;;;;;;;;;;;;9.36;100.00;99321.56;4195047;28;20035;-68
2023/12/25 05:37:23;;;;;;;;;;;;;;;9.38;100.00;99322.19;4194594;28;20027;-68
2023/12/25 05:39:25;;;;;;;;;;;;;;;9.38;100.00;99332.97;4193996;28;20023;-68
2023/12/25 05:41:29;;;;;;;;;;;;;;;9.39;100.00;99331.13;4194638;28;19974;-68
2023/12/25 05:43:31;;;;;;;;;;;;;;;9.40;100.00;99337.31;4193538;28;20022;-68
2023/12/25 05:45:33;;;;;;;;;;;;;;;9.40;100.00;99329.25;4195174;28;20031;-67
2023/12/25 05:47:34;;;;;;;;;;;;;;;9.41;100.00;99336.31;4193939;28;20027;-67
2023/12/25 05:49:36;;;;;;;;;;;;;;;9.40;100.00;99338.16;4194850;28;19929;-68
2023/12/25 05:51:38;;;;;;;;;;;;;;;9.41;100.00;99333.59;4195264;28;20441;-68
2023/12/25 05:53:39;;;;;;;;;;;;;;;9.40;100.00;99330.06;4196408;28;19963;-68
2023/12/25 05:55:41;;;;;;;;;;;;;;;9.41;100.00;99334.44;4196399;28;20011;-68
2023/12/25 05:57:45;;;;;;;;;;;;;;;9.41;100.00;99331.72;4195907;28;20376;-68
2023/12/25 05:59:47;;;;;;;;;;;;;;;9.42;100.00;99338.78;4188585;28;19994;-67
2023/12/25 06:01:49;;;;;;;;;;;;;;;9.41;100.00;99331.72;4195817;28;20639;-68
2023/12/25 06:03:51;;;;;;;;;;;;;;;9.42;100.00;99327.16;4212290;28;19959;-68
2023/12/25 06:05:53;;;;;;;;;;;;;;;9.43;100.00;99339.63;4195837;28;19975;-68
2023/12/25 06:07:55;;;;;;;;;;;;;;;9.43;100.00;99331.53;4192794;28;20028;-68
2023/12/25 06:09:57;;;;;;;;;;;;;;;9.43;100.00;99345.81;4195664;28;20063;-67
2023/12/25 06:11:59;;;;;;;;;;;;;;;9.43;100.00;99337.75;4193011;28;19992;-68
2023/12/25 06:14:03;;;;;;;;;;;;;;;9.44;100.00;99325.94;4193614;28;20040;-67
2023/12/25 06:16:06;;;;;;;;;;;;;;;9.44;100.00;99341.28;4193040;28;20028;-67
2023/12/25 06:18:08;;;;;;;;;;;;;;;9.45;100.00;99338.38;4188043;28;19985;-67
2023/12/25 06:20:10;;;;;;;;;;;;;;;9.44;100.00;99341.28;4194314;28;20406;-67
2023/12/25 06:22:11;;;;;;;;;;;;;;;9.45;100.00;99340.22;4195558;28;20843;-67
2023/12/25 06:24:13;;;;;;;;;;;;;;;9.45;100.00;99338.38;4196186;28;19936;-68
2023/12/25 06:26:15;;;;;;;;;;;;;;;9.46;100.00;99348.13;4196399;28;19974;-66
2023/12/25 06:28:17;;;;;;;;;;;;;;;9.46;100.00;99355.38;4212984;28;19988;-68
2023/12/25 06:30:21;;;;;;;;;;;;;;;9.47;100.00;99343.56;4196479;28;20454;-68
2023/12/25 06:32:23;;;;;;;;;;;;;;;9.47;100.00;99343.56;4196040;28;20015;-68
2023/12/25 06:34:25;;;;;;;;;;;;;;;9.47;100.00;99349.78;4192246;28;19959;-67
2023/12/25 06:36:26;;;;;;;;;;;;;;;9.49;100.00;99368.44;4197077;28;19971;-68
2023/12/25 06:38:27;;;;;;;;;;;;;;;9.48;100.00;99361.38;4195668;28;20283;-67
2023/12/25 06:40:30;;;;;;;;;;;;;;;9.49;100.00;99379.22;4194489;28;20015;-67
2023/12/25 06:42:32;;;;;;;;;;;;;;;9.49;100.00;99363.06;4193550;28;19925;-68
2023/12/25 06:44:34;;;;;;;;;;;;;;;9.50;100.00;99380.91;4195446;28;20023;-68
2023/12/25 06:46:39;;;;;;;;;;;;;;;9.49;100.00;99384.63;4195529;28;19971;-67
2023/12/25 06:48:41;;;;;;;;;;;;;;;9.49;100.00;99390.84;4194804;28;20023;-67
2023/12/25 06:50:42;;;;;;;;;;;;;;;9.50;100.00;99387.13;4193889;28;20039;-67
2023/12/25 06:52:44;;;;;;;;;;;;;;;9.50;100.00;99389.81;4195260;28;20897;-68
2023/12/25 06:54:46;;;;;;;;;;;;;;;9.50;100.00;99391.69;4196235;28;20015;-68
2023/12/25 06:56:48;;;;;;;;;;;;;;;9.50;100.00;99386.28;4195643;28;20019;-68
2023/12/25 06:58:50;;;;;;;;;;;;;;;9.51;100.00;99414.88;4194771;28;20015;-67
2023/12/25 07:00:52;;;;;;;;;;;;;;;9.51;100.00;99396.03;4196326;28;20022;-68
2023/12/25 07:02:55;;;;;;;;;;;;;;;9.50;100.00;99416.75;4196025;28;20386;-70
2023/12/25 07:04:57;;;;;;;;;;;;;;;9.52;100.00;99421.94;4195640;28;20019;-68
2023/12/25 07:06:59;;;;;;;;;;;;;;;9.51;100.00;99421.13;4195804;28;20032;-69
2023/12/25 07:09:01;;;;;;;;;;;;;;;9.52;100.00;99421.94;4182638;28;19964;-70
2023/12/25 07:11:02;;;;;;;;;;;;;;;9.52;100.00;99420.06;4195410;28;20015;-69
2023/12/25 07:13:04;;;;;;;;;;;;;;;9.52;100.00;99416.56;4192636;28;19986;-68
2023/12/25 07:15:06;;;;;;;;;;;;;;;9.52;100.00;99432.72;4192999;28;20003;-68
2023/12/25 07:17:08;;;;;;;;;;;;;;;9.51;100.00;99426.53;4195283;28;20031;-68
2023/12/25 07:19:11;;;;;;;;;;;;;;;9.52;100.00;99432.72;4198663;28;19991;-68
2023/12/25 07:21:13;;;;;;;;;;;;;;;9.50;100.00;99432.09;4196146;28;20860;-70
2023/12/25 07:23:17;;;;;;;;;;;;;;;9.52;100.00;99452.41;4197525;28;19956;-69
2023/12/25 07:25:19;;;;;;;;;;;;;;;9.52;100.00;99444.31;4193532;28;20386;-68
2023/12/25 07:27:21;;;;;;;;;;;;;;;9.52;100.00;99452.41;4194034;28;20362;-68
2023/12/25 07:29:23;;;;;;;;;;;;;;;9.51;100.00;99442.69;4195800;28;19972;-70
2023/12/25 07:31:26;;;;;;;;;;;;;;;9.53;100.00;99461.34;4196804;28;19975;-71
2023/12/25 07:33:28;;;;;;;;;;;;;;;9.54;100.00;99454.91;4195803;28;20511;-69
2023/12/25 07:35:31;;;;;;;;;;;;;;;9.52;100.00;99455.09;4195704;28;20019;-70
2023/12/25 07:37:33;;;;;;;;;;;;;;;9.53;100.00;99470.25;4194965;28;20024;-69
2023/12/25 07:39:35;;;;;;;;;;;;;;;9.53;100.00;99459.47;4195143;28;20015;-69
2023/12/25 07:41:37;;;;;;;;;;;;;;;9.52;100.00;99457.81;4195693;28;19935;-69
2023/12/25 07:43:39;;;;;;;;;;;;;;;9.54;100.00;99471.09;4195357;28;20361;-70
2023/12/25 07:45:41;;;;;;;;;;;;;;;9.53;100.00;99481.03;4196387;28;20424;-69
2023/12/25 07:47:44;;;;;;;;;;;;;;;9.53;100.00;99459.47;4196887;28;20023;-70
2023/12/25 07:49:46;;;;;;;;;;;;;;;9.54;100.00;99471.94;4195907;28;19928;-70
2023/12/25 07:51:49;;;;;;;;;;;;;;;9.54;100.00;99471.09;4196264;28;20023;-70
2023/12/25 07:53:51;;;;;;;;;;;;;;;9.54;100.00;99473.78;4195440;28;19970;-70
2023/12/25 07:55:54;;;;;;;;;;;;;;;9.54;100.00;99489.94;4195967;28;19929;-71
2023/12/25 07:57:56;;;;;;;;;;;;;;;9.54;100.00;99490.81;4178595;28;20047;-70
2023/12/25 07:59:58;;;;;;;;;;;;;;;9.54;100.00;99495.34;4194951;28;20021;-70
2023/12/25 08:02:00;;;;;;;;;;;;;;;9.54;100.00;99496.19;4187869;28;20099;-69
2023/12/25 08:04:02;;;;;;;;;;;;;;;9.54;100.00;99516.91;4194709;28;20346;-69
2023/12/25 08:06:04;;;;;;;;;;;;;;;9.53;100.00;99505.31;4190921;28;20026;-72
2023/12/25 08:08:08;;;;;;;;;;;;;;;9.54;100.00;99527.69;4195410;28;20366;-70
2023/12/25 08:10:11;;;;;;;;;;;;;;;9.54;100.00;99509.66;4192440;28;20455;-69
2023/12/25 08:12:14;;;;;;;;;;;;;;;9.54;100.00;99528.53;4196079;28;20028;-68
2023/12/25 08:14:16;;;;;;;;;;;;;;;9.54;100.00;99541.16;4196416;28;19960;-70
2023/12/25 08:16:18;;;;;;;;;;;;;;;9.54;100.00;99550.09;4176992;28;19926;-71
2023/12/25 08:18:20;;;;;;;;;;;;;;;9.54;100.00;99543.84;4196523;28;19967;-71
2023/12/25 08:20:22;;;;;;;;;;;;;;;9.53;100.00;99551.13;4198558;28;20398;-71
2023/12/25 08:22:23;;;;;;;;;;;;;;;9.54;100.00;99547.41;4197698;28;19975;-71
2023/12/25 08:24:27;;;;;;;;;;;;;;;9.54;100.00;99543.84;4196771;28;19982;-70
2023/12/25 08:26:29;;;;;;;;;;;;;;;9.55;100.00;99545.53;4192694;28;20011;-70
2023/12/25 08:28:31;;;;;;;;;;;;;;;9.54;100.00;99550.09;4194379;28;20355;-71
2023/12/25 08:30:33;;;;;;;;;;;;;;;9.53;100.00;99556.50;4192609;28;20430;-70
2023/12/25 08:32:35;;;;;;;;;;;;;;;9.55;100.00;99564.41;4197181;28;20429;-69
2023/12/25 08:34:38;;;;;;;;;;;;;;;9.53;100.00;99561.91;4196868;28;20441;-68
2023/12/25 08:36:40;;;;;;;;;;;;;;;9.52;100.00;99565.63;4196120;28;19967;-68
2023/12/25 08:38:42;;;;;;;;;;;;;;;9.53;100.00;99564.59;4193832;28;19968;-69
2023/12/25 08:40:45;;;;;;;;;;;;;;;9.53;100.00;99553.00;4193284;28;20051;-68
2023/12/25 08:42:47;;;;;;;;;;;;;;;9.54;100.00;99565.41;4194933;28;20019;-70
2023/12/25 08:44:49;;;;;;;;;;;;;;;9.53;100.00;99564.59;4194270;28;20317;-69
2023/12/25 08:46:51;;;;;;;;;;;;;;;9.54;100.00;99576.19;4195346;28;19958;-68
2023/12/25 08:48:53;;;;;;;;;;;;;;;9.54;100.00;99581.59;4195566;28;20019;-68
2023/12/25 08:50:54;;;;;;;;;;;;;;;9.54;100.00;99590.53;4194923;28;20027;-68
2023/12/25 08:52:56;;;;;;;;;;;;;;;9.53;100.00;99572.69;4194041;28;20354;-67
2023/12/25 08:54:58;;;;;;;;;;;;;;;9.55;100.00;99604.84;4187990;28;19955;-70
2023/12/25 08:57:01;;;;;;;;;;;;;;;9.55;100.00;99591.34;4195566;28;19984;-69
2023/12/25 08:59:05;;;;;;;;;;;;;;;9.54;100.00;99606.72;4194381;28;20020;-69
2023/12/25 09:01:07;;;;;;;;;;;;;;;9.55;100.00;99602.13;4193055;28;20019;-70
2023/12/25 09:03:09;;;;;;;;;;;;;;;9.54;100.00;99603.16;4192170;28;20011;-70
2023/12/25 09:05:14;;;;;;;;;;;;;;;9.55;100.00;99607.53;4193563;28;20619;-71
2023/12/25 09:07:16;;;;;;;;;;;;;;;9.54;100.00;99614.78;4195042;28;19924;-69
2023/12/25 09:09:19;;;;;;;;;;;;;;;9.55;100.00;99608.34;4196155;28;20019;-66
2023/12/25 09:11:21;;;;;;;;;;;;;;;9.55;100.00;99613.75;4194413;28;20023;-70
2023/12/25 09:13:24;;;;;;;;;;;;;;;9.55;100.00;99615.63;4194718;28;20019;-70
2023/12/25 09:15:26;;;;;;;;;;;;;;;9.55;100.00;99612.91;4197172;28;20865;-68
2023/12/25 09:17:27;;;;;;;;;;;;;;;9.54;100.00;99625.56;4194648;28;20019;-65
2023/12/25 09:19:29;;;;;;;;;;;;;;;9.55;100.00;99646.09;4195991;28;19959;-67
2023/12/25 09:21:36;;;;;;;;;;;;;;;9.56;100.00;99633.44;4192921;28;20581;-69
2023/12/25 09:23:38;;;;;;;;;;;;;;;9.56;100.00;99644.22;4195946;28;20023;-69
2023/12/25 09:25:40;;;;;;;;;;;;;;;9.56;100.00;99646.91;4195025;28;20054;-67
2023/12/25 09:27:42;;;;;;;;;;;;;;;9.56;100.00;99650.47;4195775;28;20034;-68
2023/12/25 09:29:44;;;;;;;;;;;;;;;9.56;100.00;99639.69;4197052;28;20389;-66
2023/12/25 09:31:46;;;;;;;;;;;;;;;9.56;100.00;99638.81;4195793;28;20011;-68
2023/12/25 09:33:48;;;;;;;;;;;;;;;9.56;100.00;99653.16;4196001;28;20018;-68
2023/12/25 09:35:51;;;;;;;;;;;;;;;9.57;100.00;99659.38;4194339;28;20019;-66
2023/12/25 09:37:53;;;;;;;;;;;;;;;9.57;100.00;99648.59;4194934;28;20422;-67
2023/12/25 09:39:54;;;;;;;;;;;;;;;9.57;100.00;99653.97;4195562;28;20388;-66
2023/12/25 09:41:56;;;;;;;;;;;;;;;9.57;100.00;99657.50;4193391;28;20023;-71
2023/12/25 09:43:58;;;;;;;;;;;;;;;9.57;100.00;99652.09;4194786;28;20087;-67
2023/12/25 09:46:04;;;;;;;;;;;;;;;9.59;100.00;99661.88;4194966;28;20043;-67
2023/12/25 09:48:06;;;;;;;;;;;;;;;9.58;100.00;99655.66;4195581;28;20043;-66
2023/12/25 09:50:08;;;;;;;;;;;;;;;9.60;100.00;99668.94;4191019;28;20046;-67
2023/12/25 09:52:10;;;;;;;;;;;;;;;9.60;100.00;99664.38;4193282;28;20032;-67
2023/12/25 09:54:12;;;;;;;;;;;;;;;9.60;100.00;99658.97;4193900;28;20060;-66
2023/12/25 09:56:15;;;;;;;;;;;;;;;9.60;100.00;99667.06;4187973;28;20048;-67
2023/12/25 09:58:18;;;;;;;;;;;;;;;9.61;100.00;99657.97;4193381;28;19928;-67
2023/12/25 10:00:20;;;;;;;;;;;;;;;9.62;100.00;99672.25;4171135;28;19932;-67
2023/12/25 10:02:25;;;;;;;;;;;;;;;9.62;100.00;99666.88;4193673;28;19979;-67
2023/12/25 10:04:27;;;;;;;;;;;;;;;9.62;100.00;99659.59;4194764;28;20027;-67
2023/12/25 10:06:29;;;;;;;;;;;;;;;9.63;100.00;99661.28;4193510;28;20019;-66
2023/12/25 10:08:31;;;;;;;;;;;;;;;9.64;100.00;99668.34;4193180;28;20019;-65
2023/12/25 10:10:33;;;;;;;;;;;;;;;9.65;100.00;99674.56;4192386;28;20031;-68
2023/12/25 10:12:35;;;;;;;;;;;;;;;9.67;100.00;99675.19;4194069;28;20019;-68
2023/12/25 10:14:38;;;;;;;;;;;;;;;9.67;100.00;99689.53;4194894;28;20024;-67
2023/12/25 10:16:41;;;;;;;;;;;;;;;9.67;100.00;99678.75;4194595;28;20019;-66
2023/12/25 10:18:44;;;;;;;;;;;;;;;9.69;100.00;99686.63;4194214;28;20019;-67
2023/12/25 10:20:55;;;;;;;;;;;;;;;9.70;100.00;99677.50;4192439;28;20489;-69
2023/12/25 10:22:57;;;;;;;;;;;;;;;9.70;100.00;99681.03;4187521;28;20027;-69
2023/12/25 10:25:06;;;;;;;;;;;;;;;9.71;100.00;99682.69;4190827;28;20477;-68
2023/12/25 10:27:10;;;;;;;;;;;;;;;9.73;100.00;99682.50;4192944;28;19928;-68
2023/12/25 10:29:13;;;;;;;;;;;;;;;9.72;100.00;99684.38;4192672;28;20023;-68
2023/12/25 10:31:15;;;;;;;;;;;;;;;9.73;100.00;99687.88;4190583;28;20074;-68
2023/12/25 10:33:17;;;;;;;;;;;;;;;9.73;100.00;99694.13;4186907;28;20040;-69
2023/12/25 10:35:22;;;;;;;;;;;;;;;9.74;100.00;99706.56;4195129;28;19966;-68
2023/12/25 10:37:25;;;;;;;;;;;;;;;9.72;100.00;99700.53;4193168;28;20043;-69